sensor_id;sensor_type;location;lat;lon;timestamp;P1;durP1;ratioP1;P2;durP2;ratioP2
18796;SDS011;9526;52.612;13.300;2023-07-08T00:00:42;9.00;;;6.65;;
18796;SDS011;9526;52.612;13.300;2023-07-08T00:03:07;8.45;;;6.57;;
18796;SDS011;9526;52.612;13.300;2023-07-08T00:05:32;9.52;;;6.68;;
18796;SDS011;9526;52.612;13.300;2023-07-08T00:07:57;9.13;;;6.78;;
18796;SDS011;9526;52.612;13.300;2023-07-08T00:10:21;9.45;;;6.78;;
18796;SDS011;9526;52.612;13.300;2023-07-08T00:12:47;9.40;;;6.85;;
18796;SDS011;9526;52.612;13.300;2023-07-08T00:15:14;11.43;;;6.60;;
18796;SDS011;9526;52.612;13.300;2023-07-08T00:17:39;9.35;;;6.75;;
18796;SDS011;9526;52.612;13.300;2023-07-08T00:20:08;10.75;;;7.38;;
18796;SDS011;9526;52.612;13.300;2023-07-08T00:22:35;9.82;;;6.85;;
18796;SDS011;9526;52.612;13.300;2023-07-08T00:25:01;10.55;;;6.97;;
18796;SDS011;9526;52.612;13.300;2023-07-08T00:27:25;9.63;;;6.43;;
18796;SDS011;9526;52.612;13.300;2023-07-08T00:29:49;9.30;;;6.20;;
18796;SDS011;9526;52.612;13.300;2023-07-08T00:32:13;11.15;;;6.82;;
18796;SDS011;9526;52.612;13.300;2023-07-08T00:34:38;8.88;;;6.28;;
18796;SDS011;9526;52.612;13.300;2023-07-08T00:37:02;8.48;;;6.47;;
18796;SDS011;9526;52.612;13.300;2023-07-08T00:39:28;11.30;;;6.68;;
18796;SDS011;9526;52.612;13.300;2023-07-08T00:41:53;10.93;;;7.00;;
18796;SDS011;9526;52.612;13.300;2023-07-08T00:44:17;8.93;;;6.78;;
18796;SDS011;9526;52.612;13.300;2023-07-08T00:46:42;9.30;;;6.88;;
18796;SDS011;9526;52.612;13.300;2023-07-08T00:49:23;11.13;;;6.95;;
18796;SDS011;9526;52.612;13.300;2023-07-08T00:51:54;9.73;;;7.05;;
18796;SDS011;9526;52.612;13.300;2023-07-08T00:54:18;9.70;;;6.85;;
18796;SDS011;9526;52.612;13.300;2023-07-08T00:56:46;8.40;;;6.85;;
18796;SDS011;9526;52.612;13.300;2023-07-08T00:59:18;11.18;;;7.20;;
18796;SDS011;9526;52.612;13.300;2023-07-08T01:01:46;10.00;;;7.28;;
18796;SDS011;9526;52.612;13.300;2023-07-08T01:04:13;10.32;;;7.07;;
18796;SDS011;9526;52.612;13.300;2023-07-08T01:06:41;8.82;;;6.90;;
18796;SDS011;9526;52.612;13.300;2023-07-08T01:09:09;10.27;;;7.07;;
18796;SDS011;9526;52.612;13.300;2023-07-08T01:11:36;9.75;;;6.78;;
18796;SDS011;9526;52.612;13.300;2023-07-08T01:14:02;11.38;;;7.13;;
18796;SDS011;9526;52.612;13.300;2023-07-08T01:16:30;10.95;;;6.75;;
18796;SDS011;9526;52.612;13.300;2023-07-08T01:18:55;10.43;;;6.90;;
18796;SDS011;9526;52.612;13.300;2023-07-08T01:21:27;11.32;;;7.22;;
18796;SDS011;9526;52.612;13.300;2023-07-08T01:23:56;11.30;;;7.80;;
18796;SDS011;9526;52.612;13.300;2023-07-08T01:26:21;9.02;;;6.80;;
18796;SDS011;9526;52.612;13.300;2023-07-08T01:28:47;10.27;;;7.13;;
18796;SDS011;9526;52.612;13.300;2023-07-08T01:31:11;9.43;;;7.05;;
18796;SDS011;9526;52.612;13.300;2023-07-08T01:33:35;8.93;;;7.05;;
18796;SDS011;9526;52.612;13.300;2023-07-08T01:35:58;9.82;;;7.35;;
18796;SDS011;9526;52.612;13.300;2023-07-08T01:38:23;10.35;;;7.30;;
18796;SDS011;9526;52.612;13.300;2023-07-08T01:40:51;9.10;;;6.80;;
18796;SDS011;9526;52.612;13.300;2023-07-08T01:43:16;10.63;;;7.20;;
18796;SDS011;9526;52.612;13.300;2023-07-08T01:45:40;8.63;;;6.85;;
18796;SDS011;9526;52.612;13.300;2023-07-08T01:48:07;9.52;;;7.00;;
18796;SDS011;9526;52.612;13.300;2023-07-08T01:50:33;9.68;;;7.20;;
18796;SDS011;9526;52.612;13.300;2023-07-08T01:53:02;9.05;;;7.00;;
18796;SDS011;9526;52.612;13.300;2023-07-08T01:55:33;8.80;;;7.13;;
18796;SDS011;9526;52.612;13.300;2023-07-08T01:57:58;9.82;;;6.90;;
18796;SDS011;9526;52.612;13.300;2023-07-08T02:00:21;9.90;;;7.28;;
18796;SDS011;9526;52.612;13.300;2023-07-08T02:02:46;9.27;;;7.00;;
18796;SDS011;9526;52.612;13.300;2023-07-08T02:05:10;9.70;;;7.20;;
18796;SDS011;9526;52.612;13.300;2023-07-08T02:07:35;9.10;;;6.63;;
18796;SDS011;9526;52.612;13.300;2023-07-08T02:09:59;10.65;;;7.38;;
18796;SDS011;9526;52.612;13.300;2023-07-08T02:12:22;10.13;;;6.72;;
18796;SDS011;9526;52.612;13.300;2023-07-08T02:14:47;9.50;;;7.13;;
18796;SDS011;9526;52.612;13.300;2023-07-08T02:17:11;9.60;;;6.25;;
18796;SDS011;9526;52.612;13.300;2023-07-08T02:19:38;9.15;;;6.82;;
18796;SDS011;9526;52.612;13.300;2023-07-08T02:22:01;11.15;;;7.20;;
18796;SDS011;9526;52.612;13.300;2023-07-08T02:24:26;9.73;;;6.90;;
18796;SDS011;9526;52.612;13.300;2023-07-08T02:26:49;10.35;;;7.15;;
18796;SDS011;9526;52.612;13.300;2023-07-08T02:29:13;10.32;;;6.90;;
18796;SDS011;9526;52.612;13.300;2023-07-08T02:31:38;10.85;;;7.30;;
18796;SDS011;9526;52.612;13.300;2023-07-08T02:34:02;8.68;;;6.95;;
18796;SDS011;9526;52.612;13.300;2023-07-08T02:36:25;10.02;;;7.00;;
18796;SDS011;9526;52.612;13.300;2023-07-08T02:38:50;10.98;;;6.93;;
18796;SDS011;9526;52.612;13.300;2023-07-08T02:41:13;9.70;;;7.15;;
18796;SDS011;9526;52.612;13.300;2023-07-08T02:43:37;12.45;;;7.10;;
18796;SDS011;9526;52.612;13.300;2023-07-08T02:46:01;9.32;;;6.57;;
18796;SDS011;9526;52.612;13.300;2023-07-08T02:48:26;8.75;;;6.68;;
18796;SDS011;9526;52.612;13.300;2023-07-08T02:50:50;8.27;;;6.65;;
18796;SDS011;9526;52.612;13.300;2023-07-08T02:53:14;9.70;;;7.10;;
18796;SDS011;9526;52.612;13.300;2023-07-08T02:55:38;10.95;;;8.20;;
18796;SDS011;9526;52.612;13.300;2023-07-08T02:58:04;10.85;;;8.20;;
18796;SDS011;9526;52.612;13.300;2023-07-08T03:00:27;14.18;;;8.35;;
18796;SDS011;9526;52.612;13.300;2023-07-08T03:02:51;10.55;;;7.63;;
18796;SDS011;9526;52.612;13.300;2023-07-08T03:05:16;12.85;;;8.63;;
18796;SDS011;9526;52.612;13.300;2023-07-08T03:07:40;10.82;;;7.60;;
18796;SDS011;9526;52.612;13.300;2023-07-08T03:10:04;12.32;;;8.10;;
18796;SDS011;9526;52.612;13.300;2023-07-08T03:12:28;11.52;;;7.70;;
18796;SDS011;9526;52.612;13.300;2023-07-08T03:14:52;10.48;;;8.00;;
18796;SDS011;9526;52.612;13.300;2023-07-08T03:17:16;14.07;;;7.75;;
18796;SDS011;9526;52.612;13.300;2023-07-08T03:19:41;10.35;;;8.13;;
18796;SDS011;9526;52.612;13.300;2023-07-08T03:22:06;13.95;;;8.88;;
18796;SDS011;9526;52.612;13.300;2023-07-08T03:24:30;11.13;;;8.10;;
18796;SDS011;9526;52.612;13.300;2023-07-08T03:26:56;12.27;;;8.75;;
18796;SDS011;9526;52.612;13.300;2023-07-08T03:29:22;10.85;;;8.07;;
18796;SDS011;9526;52.612;13.300;2023-07-08T03:31:46;12.73;;;8.90;;
18796;SDS011;9526;52.612;13.300;2023-07-08T03:34:10;12.60;;;8.50;;
18796;SDS011;9526;52.612;13.300;2023-07-08T03:36:37;11.10;;;8.30;;
18796;SDS011;9526;52.612;13.300;2023-07-08T03:39:12;11.68;;;8.02;;
18796;SDS011;9526;52.612;13.300;2023-07-08T03:41:35;10.25;;;7.63;;
18796;SDS011;9526;52.612;13.300;2023-07-08T03:43:59;12.80;;;8.15;;
18796;SDS011;9526;52.612;13.300;2023-07-08T03:46:23;11.77;;;7.70;;
18796;SDS011;9526;52.612;13.300;2023-07-08T03:48:47;10.27;;;7.95;;
18796;SDS011;9526;52.612;13.300;2023-07-08T03:51:13;10.70;;;7.63;;
18796;SDS011;9526;52.612;13.300;2023-07-08T03:53:44;12.32;;;7.45;;
18796;SDS011;9526;52.612;13.300;2023-07-08T03:56:09;11.25;;;7.97;;
18796;SDS011;9526;52.612;13.300;2023-07-08T03:58:35;9.82;;;7.45;;
18796;SDS011;9526;52.612;13.300;2023-07-08T04:00:59;10.65;;;7.68;;
18796;SDS011;9526;52.612;13.300;2023-07-08T04:03:23;11.52;;;8.00;;
18796;SDS011;9526;52.612;13.300;2023-07-08T04:05:47;8.88;;;7.40;;
18796;SDS011;9526;52.612;13.300;2023-07-08T04:08:11;10.30;;;7.28;;
18796;SDS011;9526;52.612;13.300;2023-07-08T04:10:35;9.88;;;7.18;;
18796;SDS011;9526;52.612;13.300;2023-07-08T04:13:00;11.07;;;7.40;;
18796;SDS011;9526;52.612;13.300;2023-07-08T04:15:24;12.13;;;7.72;;
18796;SDS011;9526;52.612;13.300;2023-07-08T04:17:49;10.55;;;7.70;;
18796;SDS011;9526;52.612;13.300;2023-07-08T04:20:17;11.07;;;7.93;;
18796;SDS011;9526;52.612;13.300;2023-07-08T04:22:41;9.50;;;7.38;;
18796;SDS011;9526;52.612;13.300;2023-07-08T04:25:05;8.77;;;6.78;;
18796;SDS011;9526;52.612;13.300;2023-07-08T04:27:29;9.98;;;7.43;;
18796;SDS011;9526;52.612;13.300;2023-07-08T04:29:55;9.90;;;7.85;;
18796;SDS011;9526;52.612;13.300;2023-07-08T04:32:18;10.35;;;7.30;;
18796;SDS011;9526;52.612;13.300;2023-07-08T04:34:46;9.00;;;7.22;;
18796;SDS011;9526;52.612;13.300;2023-07-08T04:37:10;11.25;;;7.38;;
18796;SDS011;9526;52.612;13.300;2023-07-08T04:39:38;10.15;;;7.65;;
18796;SDS011;9526;52.612;13.300;2023-07-08T04:42:02;8.57;;;7.15;;
18796;SDS011;9526;52.612;13.300;2023-07-08T04:44:26;10.13;;;7.75;;
18796;SDS011;9526;52.612;13.300;2023-07-08T04:46:51;8.85;;;7.30;;
18796;SDS011;9526;52.612;13.300;2023-07-08T04:49:18;8.95;;;7.20;;
18796;SDS011;9526;52.612;13.300;2023-07-08T04:51:42;10.80;;;7.10;;
18796;SDS011;9526;52.612;13.300;2023-07-08T04:54:06;9.00;;;6.68;;
18796;SDS011;9526;52.612;13.300;2023-07-08T04:56:35;9.48;;;6.72;;
18796;SDS011;9526;52.612;13.300;2023-07-08T04:59:00;9.55;;;6.70;;
18796;SDS011;9526;52.612;13.300;2023-07-08T05:01:23;8.43;;;6.88;;
18796;SDS011;9526;52.612;13.300;2023-07-08T05:03:49;9.10;;;7.30;;
18796;SDS011;9526;52.612;13.300;2023-07-08T05:06:13;8.82;;;7.07;;
18796;SDS011;9526;52.612;13.300;2023-07-08T05:08:37;9.48;;;6.85;;
18796;SDS011;9526;52.612;13.300;2023-07-08T05:11:01;8.68;;;6.43;;
18796;SDS011;9526;52.612;13.300;2023-07-08T05:13:24;9.43;;;7.22;;
18796;SDS011;9526;52.612;13.300;2023-07-08T05:15:48;9.95;;;7.05;;
18796;SDS011;9526;52.612;13.300;2023-07-08T05:18:11;8.40;;;6.93;;
18796;SDS011;9526;52.612;13.300;2023-07-08T05:20:36;9.18;;;7.10;;
18796;SDS011;9526;52.612;13.300;2023-07-08T05:23:00;9.25;;;6.80;;
18796;SDS011;9526;52.612;13.300;2023-07-08T05:25:24;9.85;;;6.50;;
18796;SDS011;9526;52.612;13.300;2023-07-08T05:27:49;8.98;;;7.03;;
18796;SDS011;9526;52.612;13.300;2023-07-08T05:30:13;8.90;;;6.88;;
18796;SDS011;9526;52.612;13.300;2023-07-08T05:32:39;8.85;;;6.90;;
18796;SDS011;9526;52.612;13.300;2023-07-08T05:35:03;10.18;;;6.80;;
18796;SDS011;9526;52.612;13.300;2023-07-08T05:37:32;8.23;;;6.57;;
18796;SDS011;9526;52.612;13.300;2023-07-08T05:39:56;9.63;;;7.65;;
18796;SDS011;9526;52.612;13.300;2023-07-08T05:42:21;9.02;;;7.43;;
18796;SDS011;9526;52.612;13.300;2023-07-08T05:44:46;8.57;;;7.15;;
18796;SDS011;9526;52.612;13.300;2023-07-08T05:47:09;8.95;;;6.85;;
18796;SDS011;9526;52.612;13.300;2023-07-08T05:49:33;9.13;;;7.00;;
18796;SDS011;9526;52.612;13.300;2023-07-08T05:51:57;9.15;;;7.07;;
18796;SDS011;9526;52.612;13.300;2023-07-08T05:54:28;8.02;;;6.15;;
18796;SDS011;9526;52.612;13.300;2023-07-08T05:56:52;8.38;;;7.05;;
18796;SDS011;9526;52.612;13.300;2023-07-08T05:59:15;10.27;;;6.95;;
18796;SDS011;9526;52.612;13.300;2023-07-08T06:01:39;8.68;;;6.88;;
18796;SDS011;9526;52.612;13.300;2023-07-08T06:04:03;7.20;;;6.38;;
18796;SDS011;9526;52.612;13.300;2023-07-08T06:06:27;8.23;;;6.63;;
18796;SDS011;9526;52.612;13.300;2023-07-08T06:08:52;7.90;;;5.93;;
18796;SDS011;9526;52.612;13.300;2023-07-08T06:11:17;6.90;;;6.20;;
18796;SDS011;9526;52.612;13.300;2023-07-08T06:13:41;7.32;;;6.03;;
18796;SDS011;9526;52.612;13.300;2023-07-08T06:16:05;7.05;;;5.90;;
18796;SDS011;9526;52.612;13.300;2023-07-08T06:18:28;7.82;;;6.07;;
18796;SDS011;9526;52.612;13.300;2023-07-08T06:20:54;6.85;;;5.50;;
18796;SDS011;9526;52.612;13.300;2023-07-08T06:23:21;6.03;;;5.43;;
18796;SDS011;9526;52.612;13.300;2023-07-08T06:25:44;6.10;;;5.50;;
18796;SDS011;9526;52.612;13.300;2023-07-08T06:28:09;6.38;;;5.45;;
18796;SDS011;9526;52.612;13.300;2023-07-08T06:30:33;5.47;;;4.95;;
18796;SDS011;9526;52.612;13.300;2023-07-08T06:32:57;5.82;;;4.75;;
18796;SDS011;9526;52.612;13.300;2023-07-08T06:35:22;5.05;;;4.55;;
18796;SDS011;9526;52.612;13.300;2023-07-08T06:37:45;5.18;;;4.60;;
18796;SDS011;9526;52.612;13.300;2023-07-08T06:40:09;4.97;;;4.47;;
18796;SDS011;9526;52.612;13.300;2023-07-08T06:42:34;5.00;;;4.50;;
18796;SDS011;9526;52.612;13.300;2023-07-08T06:45:16;5.80;;;4.18;;
18796;SDS011;9526;52.612;13.300;2023-07-08T06:47:40;5.82;;;4.30;;
18796;SDS011;9526;52.612;13.300;2023-07-08T06:50:04;5.65;;;4.65;;
18796;SDS011;9526;52.612;13.300;2023-07-08T06:52:29;6.35;;;3.80;;
18796;SDS011;9526;52.612;13.300;2023-07-08T06:54:55;4.68;;;4.20;;
18796;SDS011;9526;52.612;13.300;2023-07-08T06:57:19;4.93;;;4.28;;
18796;SDS011;9526;52.612;13.300;2023-07-08T06:59:43;4.97;;;4.30;;
18796;SDS011;9526;52.612;13.300;2023-07-08T07:02:08;4.18;;;3.78;;
18796;SDS011;9526;52.612;13.300;2023-07-08T07:04:32;4.28;;;3.88;;
18796;SDS011;9526;52.612;13.300;2023-07-08T07:06:57;4.10;;;3.60;;
18796;SDS011;9526;52.612;13.300;2023-07-08T07:09:20;3.95;;;3.63;;
18796;SDS011;9526;52.612;13.300;2023-07-08T07:11:44;4.38;;;3.88;;
18796;SDS011;9526;52.612;13.300;2023-07-08T07:14:08;6.20;;;4.13;;
18796;SDS011;9526;52.612;13.300;2023-07-08T07:16:34;6.80;;;3.63;;
18796;SDS011;9526;52.612;13.300;2023-07-08T07:18:59;4.80;;;3.88;;
18796;SDS011;9526;52.612;13.300;2023-07-08T07:21:23;4.53;;;3.50;;
18796;SDS011;9526;52.612;13.300;2023-07-08T07:23:46;4.28;;;3.70;;
18796;SDS011;9526;52.612;13.300;2023-07-08T07:26:10;4.22;;;3.30;;
18796;SDS011;9526;52.612;13.300;2023-07-08T07:28:34;5.50;;;2.97;;
18796;SDS011;9526;52.612;13.300;2023-07-08T07:30:58;5.15;;;3.90;;
18796;SDS011;9526;52.612;13.300;2023-07-08T07:33:23;3.97;;;3.40;;
18796;SDS011;9526;52.612;13.300;2023-07-08T07:35:48;4.43;;;3.40;;
18796;SDS011;9526;52.612;13.300;2023-07-08T07:38:13;3.53;;;3.22;;
18796;SDS011;9526;52.612;13.300;2023-07-08T07:40:39;4.10;;;3.20;;
18796;SDS011;9526;52.612;13.300;2023-07-08T07:43:03;4.20;;;3.65;;
18796;SDS011;9526;52.612;13.300;2023-07-08T07:45:26;3.35;;;3.05;;
18796;SDS011;9526;52.612;13.300;2023-07-08T07:47:50;6.88;;;3.15;;
18796;SDS011;9526;52.612;13.300;2023-07-08T07:50:14;4.38;;;3.22;;
18796;SDS011;9526;52.612;13.300;2023-07-08T07:52:39;4.13;;;3.30;;
18796;SDS011;9526;52.612;13.300;2023-07-08T07:55:07;4.35;;;3.42;;
18796;SDS011;9526;52.612;13.300;2023-07-08T07:57:31;3.75;;;3.33;;
18796;SDS011;9526;52.612;13.300;2023-07-08T07:59:55;3.95;;;3.20;;
18796;SDS011;9526;52.612;13.300;2023-07-08T08:02:19;3.70;;;2.95;;
18796;SDS011;9526;52.612;13.300;2023-07-08T08:04:42;4.00;;;3.53;;
18796;SDS011;9526;52.612;13.300;2023-07-08T08:07:06;3.00;;;2.65;;
18796;SDS011;9526;52.612;13.300;2023-07-08T08:09:32;4.32;;;3.00;;
18796;SDS011;9526;52.612;13.300;2023-07-08T08:11:56;5.00;;;3.30;;
18796;SDS011;9526;52.612;13.300;2023-07-08T08:14:20;3.83;;;3.10;;
18796;SDS011;9526;52.612;13.300;2023-07-08T08:16:44;3.13;;;2.83;;
18796;SDS011;9526;52.612;13.300;2023-07-08T08:19:07;3.55;;;3.13;;
18796;SDS011;9526;52.612;13.300;2023-07-08T08:21:31;3.20;;;2.90;;
18796;SDS011;9526;52.612;13.300;2023-07-08T08:23:54;5.25;;;2.80;;
18796;SDS011;9526;52.612;13.300;2023-07-08T08:26:21;3.97;;;2.97;;
18796;SDS011;9526;52.612;13.300;2023-07-08T08:28:45;3.70;;;2.95;;
18796;SDS011;9526;52.612;13.300;2023-07-08T08:31:08;4.03;;;3.00;;
18796;SDS011;9526;52.612;13.300;2023-07-08T08:33:32;3.70;;;2.75;;
18796;SDS011;9526;52.612;13.300;2023-07-08T08:35:56;3.45;;;2.75;;
18796;SDS011;9526;52.612;13.300;2023-07-08T08:38:20;5.72;;;2.90;;
18796;SDS011;9526;52.612;13.300;2023-07-08T08:40:44;3.83;;;2.80;;
18796;SDS011;9526;52.612;13.300;2023-07-08T08:43:12;3.47;;;3.15;;
18796;SDS011;9526;52.612;13.300;2023-07-08T08:45:41;3.55;;;2.72;;
18796;SDS011;9526;52.612;13.300;2023-07-08T08:48:14;4.10;;;3.17;;
18796;SDS011;9526;52.612;13.300;2023-07-08T08:50:49;3.22;;;2.92;;
18796;SDS011;9526;52.612;13.300;2023-07-08T08:53:19;3.97;;;2.92;;
18796;SDS011;9526;52.612;13.300;2023-07-08T08:55:45;3.85;;;2.92;;
18796;SDS011;9526;52.612;13.300;2023-07-08T08:58:18;3.05;;;2.72;;
18796;SDS011;9526;52.612;13.300;2023-07-08T09:00:54;3.70;;;2.90;;
18796;SDS011;9526;52.612;13.300;2023-07-08T09:03:25;3.20;;;2.90;;
18796;SDS011;9526;52.612;13.300;2023-07-08T09:05:58;3.92;;;2.78;;
18796;SDS011;9526;52.612;13.300;2023-07-08T09:08:26;5.03;;;2.83;;
18796;SDS011;9526;52.612;13.300;2023-07-08T09:10:56;3.50;;;3.20;;
18796;SDS011;9526;52.612;13.300;2023-07-08T09:13:26;4.60;;;2.80;;
18796;SDS011;9526;52.612;13.300;2023-07-08T09:15:58;4.15;;;2.60;;
18796;SDS011;9526;52.612;13.300;2023-07-08T09:18:30;3.40;;;2.88;;
18796;SDS011;9526;52.612;13.300;2023-07-08T09:21:00;3.55;;;2.53;;
18796;SDS011;9526;52.612;13.300;2023-07-08T09:23:38;3.40;;;2.42;;
18796;SDS011;9526;52.612;13.300;2023-07-08T09:26:04;3.10;;;2.45;;
18796;SDS011;9526;52.612;13.300;2023-07-08T09:28:38;5.03;;;2.28;;
18796;SDS011;9526;52.612;13.300;2023-07-08T09:31:05;3.47;;;2.90;;
18796;SDS011;9526;52.612;13.300;2023-07-08T09:33:31;3.42;;;2.50;;
18796;SDS011;9526;52.612;13.300;2023-07-08T09:35:55;3.58;;;2.63;;
18796;SDS011;9526;52.612;13.300;2023-07-08T09:38:21;5.13;;;2.50;;
18796;SDS011;9526;52.612;13.300;2023-07-08T09:40:46;2.72;;;2.53;;
18796;SDS011;9526;52.612;13.300;2023-07-08T09:43:24;3.50;;;2.33;;
18796;SDS011;9526;52.612;13.300;2023-07-08T09:45:55;3.38;;;2.38;;
18796;SDS011;9526;52.612;13.300;2023-07-08T09:48:23;1.98;;;1.77;;
18796;SDS011;9526;52.612;13.300;2023-07-08T09:50:49;2.58;;;2.17;;
18796;SDS011;9526;52.612;13.300;2023-07-08T09:53:15;3.40;;;2.10;;
18796;SDS011;9526;52.612;13.300;2023-07-08T09:55:39;4.03;;;2.20;;
18796;SDS011;9526;52.612;13.300;2023-07-08T09:58:03;2.40;;;2.00;;
18796;SDS011;9526;52.612;13.300;2023-07-08T10:00:27;2.75;;;2.35;;
18796;SDS011;9526;52.612;13.300;2023-07-08T10:02:57;2.42;;;1.95;;
18796;SDS011;9526;52.612;13.300;2023-07-08T10:05:28;2.92;;;2.08;;
18796;SDS011;9526;52.612;13.300;2023-07-08T10:07:56;2.90;;;2.30;;
18796;SDS011;9526;52.612;13.300;2023-07-08T10:10:22;3.08;;;1.90;;
18796;SDS011;9526;52.612;13.300;2023-07-08T10:12:53;2.13;;;1.83;;
18796;SDS011;9526;52.612;13.300;2023-07-08T10:15:21;2.70;;;2.08;;
18796;SDS011;9526;52.612;13.300;2023-07-08T10:17:51;2.50;;;2.30;;
18796;SDS011;9526;52.612;13.300;2023-07-08T10:20:17;2.20;;;1.92;;
18796;SDS011;9526;52.612;13.300;2023-07-08T10:22:45;2.72;;;2.10;;
18796;SDS011;9526;52.612;13.300;2023-07-08T10:25:29;3.85;;;2.22;;
18796;SDS011;9526;52.612;13.300;2023-07-08T10:28:06;4.40;;;2.20;;
18796;SDS011;9526;52.612;13.300;2023-07-08T10:30:51;2.63;;;1.98;;
18796;SDS011;9526;52.612;13.300;2023-07-08T10:36:34;3.90;;;2.50;;
18796;SDS011;9526;52.612;13.300;2023-07-08T10:42:07;2.47;;;2.28;;
18796;SDS011;9526;52.612;13.300;2023-07-08T10:44:54;3.40;;;2.10;;
18796;SDS011;9526;52.612;13.300;2023-07-08T10:47:31;2.60;;;1.98;;
18796;SDS011;9526;52.612;13.300;2023-07-08T10:50:13;2.88;;;2.10;;
18796;SDS011;9526;52.612;13.300;2023-07-08T10:52:59;2.03;;;1.83;;
18796;SDS011;9526;52.612;13.300;2023-07-08T10:55:44;3.03;;;2.20;;
18796;SDS011;9526;52.612;13.300;2023-07-08T10:58:19;2.40;;;2.10;;
18796;SDS011;9526;52.612;13.300;2023-07-08T11:01:02;2.25;;;2.05;;
18796;SDS011;9526;52.612;13.300;2023-07-08T11:03:43;3.38;;;2.45;;
18796;SDS011;9526;52.612;13.300;2023-07-08T11:06:40;3.00;;;2.35;;
18796;SDS011;9526;52.612;13.300;2023-07-08T11:09:12;2.53;;;2.20;;
18796;SDS011;9526;52.612;13.300;2023-07-08T11:11:42;2.38;;;2.17;;
18796;SDS011;9526;52.612;13.300;2023-07-08T11:14:09;2.50;;;2.20;;
18796;SDS011;9526;52.612;13.300;2023-07-08T11:16:40;2.40;;;2.05;;
18796;SDS011;9526;52.612;13.300;2023-07-08T11:19:10;2.90;;;2.30;;
18796;SDS011;9526;52.612;13.300;2023-07-08T11:21:40;2.63;;;2.30;;
18796;SDS011;9526;52.612;13.300;2023-07-08T11:24:11;3.25;;;2.00;;
18796;SDS011;9526;52.612;13.300;2023-07-08T11:26:45;3.08;;;2.08;;
18796;SDS011;9526;52.612;13.300;2023-07-08T11:29:15;2.38;;;2.17;;
18796;SDS011;9526;52.612;13.300;2023-07-08T11:31:43;2.55;;;2.30;;
18796;SDS011;9526;52.612;13.300;2023-07-08T11:34:08;2.35;;;2.15;;
18796;SDS011;9526;52.612;13.300;2023-07-08T11:36:35;3.20;;;2.30;;
18796;SDS011;9526;52.612;13.300;2023-07-08T11:38:59;2.50;;;2.08;;
18796;SDS011;9526;52.612;13.300;2023-07-08T11:41:25;2.40;;;1.77;;
18796;SDS011;9526;52.612;13.300;2023-07-08T11:43:56;2.42;;;2.22;;
18796;SDS011;9526;52.612;13.300;2023-07-08T11:46:23;2.38;;;2.17;;
18796;SDS011;9526;52.612;13.300;2023-07-08T11:48:51;2.88;;;2.30;;
18796;SDS011;9526;52.612;13.300;2023-07-08T11:51:17;3.13;;;2.20;;
18796;SDS011;9526;52.612;13.300;2023-07-08T11:53:48;3.63;;;2.38;;
18796;SDS011;9526;52.612;13.300;2023-07-08T11:56:23;3.80;;;2.25;;
18796;SDS011;9526;52.612;13.300;2023-07-08T11:58:50;2.50;;;2.30;;
18796;SDS011;9526;52.612;13.300;2023-07-08T12:01:28;2.38;;;2.08;;
18796;SDS011;9526;52.612;13.300;2023-07-08T12:03:59;4.25;;;2.47;;
18796;SDS011;9526;52.612;13.300;2023-07-08T12:06:43;3.78;;;2.35;;
18796;SDS011;9526;52.612;13.300;2023-07-08T12:09:15;2.60;;;2.20;;
18796;SDS011;9526;52.612;13.300;2023-07-08T12:11:47;2.40;;;2.20;;
18796;SDS011;9526;52.612;13.300;2023-07-08T12:14:16;2.80;;;2.08;;
18796;SDS011;9526;52.612;13.300;2023-07-08T12:16:39;2.47;;;2.10;;
18796;SDS011;9526;52.612;13.300;2023-07-08T12:19:04;2.42;;;2.00;;
18796;SDS011;9526;52.612;13.300;2023-07-08T12:21:29;2.88;;;2.33;;
18796;SDS011;9526;52.612;13.300;2023-07-08T12:23:53;2.75;;;2.10;;
18796;SDS011;9526;52.612;13.300;2023-07-08T12:26:17;2.53;;;2.20;;
18796;SDS011;9526;52.612;13.300;2023-07-08T12:28:43;2.95;;;2.28;;
18796;SDS011;9526;52.612;13.300;2023-07-08T12:31:08;2.50;;;2.08;;
18796;SDS011;9526;52.612;13.300;2023-07-08T12:33:39;5.75;;;2.15;;
18796;SDS011;9526;52.612;13.300;2023-07-08T12:36:03;2.70;;;2.15;;
18796;SDS011;9526;52.612;13.300;2023-07-08T12:38:28;2.72;;;2.28;;
18796;SDS011;9526;52.612;13.300;2023-07-08T12:40:55;2.55;;;2.35;;
18796;SDS011;9526;52.612;13.300;2023-07-08T12:43:20;2.50;;;2.30;;
18796;SDS011;9526;52.612;13.300;2023-07-08T12:45:45;2.67;;;2.10;;
18796;SDS011;9526;52.612;13.300;2023-07-08T12:48:09;2.67;;;2.00;;
18796;SDS011;9526;52.612;13.300;2023-07-08T12:50:33;2.47;;;2.28;;
18796;SDS011;9526;52.612;13.300;2023-07-08T12:52:56;3.53;;;2.38;;
18796;SDS011;9526;52.612;13.300;2023-07-08T12:55:26;2.67;;;2.22;;
18796;SDS011;9526;52.612;13.300;2023-07-08T12:57:50;2.30;;;2.10;;
18796;SDS011;9526;52.612;13.300;2023-07-08T13:00:16;2.63;;;2.15;;
18796;SDS011;9526;52.612;13.300;2023-07-08T13:02:50;2.20;;;2.00;;
18796;SDS011;9526;52.612;13.300;2023-07-08T13:05:21;2.95;;;2.50;;
18796;SDS011;9526;52.612;13.300;2023-07-08T13:07:45;2.90;;;2.45;;
18796;SDS011;9526;52.612;13.300;2023-07-08T13:10:16;3.53;;;2.53;;
18796;SDS011;9526;52.612;13.300;2023-07-08T13:12:43;4.43;;;2.50;;
18796;SDS011;9526;52.612;13.300;2023-07-08T13:15:10;2.28;;;2.05;;
18796;SDS011;9526;52.612;13.300;2023-07-08T13:17:42;3.00;;;2.42;;
18796;SDS011;9526;52.612;13.300;2023-07-08T13:20:09;8.13;;;2.40;;
18796;SDS011;9526;52.612;13.300;2023-07-08T13:22:37;2.83;;;2.38;;
18796;SDS011;9526;52.612;13.300;2023-07-08T13:25:02;3.25;;;2.30;;
18796;SDS011;9526;52.612;13.300;2023-07-08T13:27:36;3.20;;;2.50;;
18796;SDS011;9526;52.612;13.300;2023-07-08T13:30:06;2.90;;;2.28;;
18796;SDS011;9526;52.612;13.300;2023-07-08T13:32:40;2.20;;;2.00;;
18796;SDS011;9526;52.612;13.300;2023-07-08T13:35:04;2.42;;;2.22;;
18796;SDS011;9526;52.612;13.300;2023-07-08T13:37:51;2.70;;;2.30;;
18796;SDS011;9526;52.612;13.300;2023-07-08T13:40:15;2.70;;;2.50;;
18796;SDS011;9526;52.612;13.300;2023-07-08T13:42:45;2.55;;;2.35;;
18796;SDS011;9526;52.612;13.300;2023-07-08T13:45:13;2.40;;;2.20;;
18796;SDS011;9526;52.612;13.300;2023-07-08T13:47:38;2.55;;;2.35;;
18796;SDS011;9526;52.612;13.300;2023-07-08T13:50:05;2.47;;;2.20;;
18796;SDS011;9526;52.612;13.300;2023-07-08T13:52:39;3.70;;;2.58;;
18796;SDS011;9526;52.612;13.300;2023-07-08T13:55:09;2.70;;;2.50;;
18796;SDS011;9526;52.612;13.300;2023-07-08T13:57:42;4.35;;;2.10;;
18796;SDS011;9526;52.612;13.300;2023-07-08T14:00:07;2.75;;;2.20;;
18796;SDS011;9526;52.612;13.300;2023-07-08T14:02:36;3.15;;;2.60;;
18796;SDS011;9526;52.612;13.300;2023-07-08T14:05:08;2.63;;;2.17;;
18796;SDS011;9526;52.612;13.300;2023-07-08T14:07:35;3.72;;;2.38;;
18796;SDS011;9526;52.612;13.300;2023-07-08T14:10:00;2.85;;;2.53;;
18796;SDS011;9526;52.612;13.300;2023-07-08T14:12:23;3.17;;;2.53;;
18796;SDS011;9526;52.612;13.300;2023-07-08T14:14:47;3.22;;;2.40;;
18796;SDS011;9526;52.612;13.300;2023-07-08T14:17:13;2.65;;;2.40;;
18796;SDS011;9526;52.612;13.300;2023-07-08T14:19:41;2.80;;;2.60;;
18796;SDS011;9526;52.612;13.300;2023-07-08T14:22:09;2.85;;;2.05;;
18796;SDS011;9526;52.612;13.300;2023-07-08T14:24:47;2.40;;;2.20;;
18796;SDS011;9526;52.612;13.300;2023-07-08T14:27:12;2.72;;;2.10;;
18796;SDS011;9526;52.612;13.300;2023-07-08T14:29:36;2.55;;;2.30;;
18796;SDS011;9526;52.612;13.300;2023-07-08T14:31:59;2.40;;;2.20;;
18796;SDS011;9526;52.612;13.300;2023-07-08T14:34:24;4.20;;;2.50;;
18796;SDS011;9526;52.612;13.300;2023-07-08T14:36:48;3.60;;;2.50;;
18796;SDS011;9526;52.612;13.300;2023-07-08T14:39:13;3.47;;;2.70;;
18796;SDS011;9526;52.612;13.300;2023-07-08T14:41:39;2.80;;;2.28;;
18796;SDS011;9526;52.612;13.300;2023-07-08T14:44:07;2.35;;;2.15;;
18796;SDS011;9526;52.612;13.300;2023-07-08T14:46:44;2.42;;;2.22;;
18796;SDS011;9526;52.612;13.300;2023-07-08T14:49:10;2.42;;;2.22;;